sensor_id;sensor_type;location;lat;lon;timestamp;P1;durP1;ratioP1;P2;durP2;ratioP2
40669;SDS011;26355;45.528;9.234;2023-03-14T00:00:33;29.95;;;18.23;;
40669;SDS011;26355;45.528;9.234;2023-03-14T00:02:59;30.25;;;18.23;;
40669;SDS011;26355;45.528;9.234;2023-03-14T00:05:25;28.63;;;17.52;;
40669;SDS011;26355;45.528;9.234;2023-03-14T00:07:51;29.35;;;17.92;;
40669;SDS011;26355;45.528;9.234;2023-03-14T00:10:17;28.92;;;17.05;;
40669;SDS011;26355;45.528;9.234;2023-03-14T00:12:43;29.58;;;17.73;;
40669;SDS011;26355;45.528;9.234;2023-03-14T00:15:09;28.20;;;17.65;;
40669;SDS011;26355;45.528;9.234;2023-03-14T00:17:36;30.40;;;17.65;;
40669;SDS011;26355;45.528;9.234;2023-03-14T00:20:02;30.10;;;16.38;;
40669;SDS011;26355;45.528;9.234;2023-03-14T00:22:33;28.40;;;17.42;;
40669;SDS011;26355;45.528;9.234;2023-03-14T00:25:00;26.98;;;16.80;;
40669;SDS011;26355;45.528;9.234;2023-03-14T00:27:27;31.10;;;16.52;;
40669;SDS011;26355;45.528;9.234;2023-03-14T00:29:52;30.48;;;16.98;;
40669;SDS011;26355;45.528;9.234;2023-03-14T00:32:18;25.52;;;14.43;;
40669;SDS011;26355;45.528;9.234;2023-03-14T00:34:43;28.30;;;16.40;;
40669;SDS011;26355;45.528;9.234;2023-03-14T00:37:09;27.00;;;15.45;;
40669;SDS011;26355;45.528;9.234;2023-03-14T00:39:35;24.63;;;14.68;;
40669;SDS011;26355;45.528;9.234;2023-03-14T00:42:00;28.90;;;16.20;;
40669;SDS011;26355;45.528;9.234;2023-03-14T00:44:26;25.42;;;14.60;;
40669;SDS011;26355;45.528;9.234;2023-03-14T00:46:51;27.45;;;15.38;;
40669;SDS011;26355;45.528;9.234;2023-03-14T00:49:17;27.52;;;15.15;;
40669;SDS011;26355;45.528;9.234;2023-03-14T00:51:42;26.63;;;15.60;;
40669;SDS011;26355;45.528;9.234;2023-03-14T00:54:08;28.15;;;15.20;;
40669;SDS011;26355;45.528;9.234;2023-03-14T00:56:33;30.52;;;14.73;;
40669;SDS011;26355;45.528;9.234;2023-03-14T00:58:59;26.25;;;15.18;;
40669;SDS011;26355;45.528;9.234;2023-03-14T01:01:25;26.95;;;15.18;;
40669;SDS011;26355;45.528;9.234;2023-03-14T01:03:51;29.15;;;15.10;;
40669;SDS011;26355;45.528;9.234;2023-03-14T01:06:18;24.10;;;12.90;;
40669;SDS011;26355;45.528;9.234;2023-03-14T01:08:46;27.50;;;14.10;;
40669;SDS011;26355;45.528;9.234;2023-03-14T01:11:14;24.63;;;12.97;;
40669;SDS011;26355;45.528;9.234;2023-03-14T01:13:42;26.00;;;14.55;;
40669;SDS011;26355;45.528;9.234;2023-03-14T01:16:09;26.38;;;14.98;;
40669;SDS011;26355;45.528;9.234;2023-03-14T01:18:35;24.75;;;11.82;;
40669;SDS011;26355;45.528;9.234;2023-03-14T01:21:02;27.90;;;14.50;;
40669;SDS011;26355;45.528;9.234;2023-03-14T01:23:34;25.48;;;14.18;;
40669;SDS011;26355;45.528;9.234;2023-03-14T01:25:59;23.75;;;11.70;;
40669;SDS011;26355;45.528;9.234;2023-03-14T01:28:25;25.48;;;11.07;;
40669;SDS011;26355;45.528;9.234;2023-03-14T01:30:50;24.35;;;13.55;;
40669;SDS011;26355;45.528;9.234;2023-03-14T01:33:16;26.38;;;14.02;;
40669;SDS011;26355;45.528;9.234;2023-03-14T01:35:42;26.08;;;14.35;;
40669;SDS011;26355;45.528;9.234;2023-03-14T01:38:07;25.65;;;13.48;;
40669;SDS011;26355;45.528;9.234;2023-03-14T01:40:33;29.45;;;14.70;;
40669;SDS011;26355;45.528;9.234;2023-03-14T01:43:05;25.70;;;14.52;;
40669;SDS011;26355;45.528;9.234;2023-03-14T01:51:12;28.88;;;16.05;;
40669;SDS011;26355;45.528;9.234;2023-03-14T01:53:45;26.00;;;14.38;;
40669;SDS011;26355;45.528;9.234;2023-03-14T01:56:13;31.63;;;15.00;;
40669;SDS011;26355;45.528;9.234;2023-03-14T01:58:41;29.67;;;16.90;;
40669;SDS011;26355;45.528;9.234;2023-03-14T02:01:09;26.17;;;15.13;;
40669;SDS011;26355;45.528;9.234;2023-03-14T02:03:38;25.58;;;14.98;;
40669;SDS011;26355;45.528;9.234;2023-03-14T02:06:12;22.98;;;12.63;;
40669;SDS011;26355;45.528;9.234;2023-03-14T02:08:42;25.67;;;13.40;;
40669;SDS011;26355;45.528;9.234;2023-03-14T02:11:08;29.80;;;15.88;;
40669;SDS011;26355;45.528;9.234;2023-03-14T02:13:34;25.80;;;15.88;;
40669;SDS011;26355;45.528;9.234;2023-03-14T02:16:00;27.38;;;15.55;;
40669;SDS011;26355;45.528;9.234;2023-03-14T02:18:25;26.38;;;15.15;;
40669;SDS011;26355;45.528;9.234;2023-03-14T02:26:28;27.23;;;15.52;;
40669;SDS011;26355;45.528;9.234;2023-03-14T02:29:08;26.90;;;15.02;;
40669;SDS011;26355;45.528;9.234;2023-03-14T02:31:34;27.83;;;16.42;;
40669;SDS011;26355;45.528;9.234;2023-03-14T02:34:00;29.70;;;14.85;;
40669;SDS011;26355;45.528;9.234;2023-03-14T02:36:27;30.23;;;17.48;;
40669;SDS011;26355;45.528;9.234;2023-03-14T02:41:36;26.27;;;14.98;;
40669;SDS011;26355;45.528;9.234;2023-03-14T02:44:02;28.42;;;16.52;;
40669;SDS011;26355;45.528;9.234;2023-03-14T02:46:27;25.33;;;15.23;;
40669;SDS011;26355;45.528;9.234;2023-03-14T02:48:54;26.15;;;16.42;;
40669;SDS011;26355;45.528;9.234;2023-03-14T02:51:25;25.23;;;14.35;;
40669;SDS011;26355;45.528;9.234;2023-03-14T02:53:52;27.07;;;15.20;;
40669;SDS011;26355;45.528;9.234;2023-03-14T02:56:18;26.65;;;13.85;;
40669;SDS011;26355;45.528;9.234;2023-03-14T02:58:43;27.13;;;15.73;;
40669;SDS011;26355;45.528;9.234;2023-03-14T03:01:09;29.52;;;16.25;;
40669;SDS011;26355;45.528;9.234;2023-03-14T03:03:35;27.35;;;15.05;;
40669;SDS011;26355;45.528;9.234;2023-03-14T03:06:00;25.75;;;15.23;;
40669;SDS011;26355;45.528;9.234;2023-03-14T03:08:26;26.67;;;15.82;;
40669;SDS011;26355;45.528;9.234;2023-03-14T03:10:53;25.17;;;14.00;;
40669;SDS011;26355;45.528;9.234;2023-03-14T03:13:19;29.35;;;16.23;;
40669;SDS011;26355;45.528;9.234;2023-03-14T03:15:45;28.63;;;15.82;;
40669;SDS011;26355;45.528;9.234;2023-03-14T03:18:11;31.02;;;15.95;;
40669;SDS011;26355;45.528;9.234;2023-03-14T03:20:37;26.67;;;15.25;;
40669;SDS011;26355;45.528;9.234;2023-03-14T03:23:02;25.20;;;16.05;;
40669;SDS011;26355;45.528;9.234;2023-03-14T03:25:28;27.73;;;17.55;;
40669;SDS011;26355;45.528;9.234;2023-03-14T03:27:54;28.00;;;15.63;;
40669;SDS011;26355;45.528;9.234;2023-03-14T03:30:19;27.02;;;14.93;;
40669;SDS011;26355;45.528;9.234;2023-03-14T03:32:45;27.38;;;15.32;;
40669;SDS011;26355;45.528;9.234;2023-03-14T03:35:11;27.95;;;15.85;;
40669;SDS011;26355;45.528;9.234;2023-03-14T03:37:37;27.55;;;14.15;;
40669;SDS011;26355;45.528;9.234;2023-03-14T03:40:03;25.75;;;14.68;;
40669;SDS011;26355;45.528;9.234;2023-03-14T03:44:56;25.83;;;14.70;;
40669;SDS011;26355;45.528;9.234;2023-03-14T03:47:22;25.50;;;14.43;;
40669;SDS011;26355;45.528;9.234;2023-03-14T03:49:47;26.00;;;14.68;;
40669;SDS011;26355;45.528;9.234;2023-03-14T03:52:13;28.02;;;15.68;;
40669;SDS011;26355;45.528;9.234;2023-03-14T03:54:39;30.98;;;15.77;;
40669;SDS011;26355;45.528;9.234;2023-03-14T03:57:04;29.13;;;16.60;;
40669;SDS011;26355;45.528;9.234;2023-03-14T03:59:30;26.52;;;14.80;;
40669;SDS011;26355;45.528;9.234;2023-03-14T04:01:55;27.50;;;15.98;;
40669;SDS011;26355;45.528;9.234;2023-03-14T04:04:21;30.58;;;17.05;;
40669;SDS011;26355;45.528;9.234;2023-03-14T04:06:46;31.98;;;17.15;;
40669;SDS011;26355;45.528;9.234;2023-03-14T04:09:12;28.65;;;17.00;;
40669;SDS011;26355;45.528;9.234;2023-03-14T04:11:38;27.05;;;17.08;;
40669;SDS011;26355;45.528;9.234;2023-03-14T04:14:05;29.58;;;16.75;;
40669;SDS011;26355;45.528;9.234;2023-03-14T04:18:57;27.55;;;16.02;;
40669;SDS011;26355;45.528;9.234;2023-03-14T04:21:23;28.95;;;17.08;;
40669;SDS011;26355;45.528;9.234;2023-03-14T04:23:49;27.15;;;16.20;;
40669;SDS011;26355;45.528;9.234;2023-03-14T04:26:15;26.77;;;16.30;;
40669;SDS011;26355;45.528;9.234;2023-03-14T04:28:41;29.10;;;18.13;;
40669;SDS011;26355;45.528;9.234;2023-03-14T04:31:10;30.83;;;16.92;;
40669;SDS011;26355;45.528;9.234;2023-03-14T04:33:37;29.98;;;17.33;;
40669;SDS011;26355;45.528;9.234;2023-03-14T04:36:04;30.23;;;17.63;;
40669;SDS011;26355;45.528;9.234;2023-03-14T04:38:31;27.08;;;15.80;;
40669;SDS011;26355;45.528;9.234;2023-03-14T04:40:57;28.83;;;17.40;;
40669;SDS011;26355;45.528;9.234;2023-03-14T04:43:22;30.27;;;18.25;;
40669;SDS011;26355;45.528;9.234;2023-03-14T04:45:48;30.80;;;17.75;;
40669;SDS011;26355;45.528;9.234;2023-03-14T04:48:14;28.02;;;16.95;;
40669;SDS011;26355;45.528;9.234;2023-03-14T04:50:39;32.08;;;17.70;;
40669;SDS011;26355;45.528;9.234;2023-03-14T04:53:05;27.05;;;16.15;;
40669;SDS011;26355;45.528;9.234;2023-03-14T04:55:31;27.25;;;16.13;;
40669;SDS011;26355;45.528;9.234;2023-03-14T04:57:57;30.23;;;15.57;;
40669;SDS011;26355;45.528;9.234;2023-03-14T05:00:23;28.60;;;15.50;;
40669;SDS011;26355;45.528;9.234;2023-03-14T05:02:49;25.20;;;13.98;;
40669;SDS011;26355;45.528;9.234;2023-03-14T05:05:15;28.90;;;16.10;;
40669;SDS011;26355;45.528;9.234;2023-03-14T05:07:40;25.35;;;13.02;;
40669;SDS011;26355;45.528;9.234;2023-03-14T05:10:06;26.98;;;13.50;;
40669;SDS011;26355;45.528;9.234;2023-03-14T05:12:32;25.38;;;13.77;;
40669;SDS011;26355;45.528;9.234;2023-03-14T05:14:57;26.05;;;15.75;;
40669;SDS011;26355;45.528;9.234;2023-03-14T05:17:23;28.85;;;15.13;;
40669;SDS011;26355;45.528;9.234;2023-03-14T05:19:48;26.75;;;15.07;;
40669;SDS011;26355;45.528;9.234;2023-03-14T05:22:14;30.13;;;16.25;;
40669;SDS011;26355;45.528;9.234;2023-03-14T05:24:39;27.48;;;15.65;;
40669;SDS011;26355;45.528;9.234;2023-03-14T05:27:05;28.17;;;14.95;;
40669;SDS011;26355;45.528;9.234;2023-03-14T05:29:31;26.85;;;14.43;;
40669;SDS011;26355;45.528;9.234;2023-03-14T05:31:56;23.80;;;12.32;;
40669;SDS011;26355;45.528;9.234;2023-03-14T05:34:22;25.45;;;14.70;;
40669;SDS011;26355;45.528;9.234;2023-03-14T05:36:47;24.98;;;14.77;;
40669;SDS011;26355;45.528;9.234;2023-03-14T05:39:13;27.75;;;15.57;;
40669;SDS011;26355;45.528;9.234;2023-03-14T05:41:38;25.55;;;13.85;;
40669;SDS011;26355;45.528;9.234;2023-03-14T05:44:04;24.50;;;14.80;;
40669;SDS011;26355;45.528;9.234;2023-03-14T05:46:30;26.48;;;14.52;;
40669;SDS011;26355;45.528;9.234;2023-03-14T05:48:56;26.02;;;15.57;;
40669;SDS011;26355;45.528;9.234;2023-03-14T05:51:22;26.50;;;15.75;;
40669;SDS011;26355;45.528;9.234;2023-03-14T05:53:48;28.55;;;15.45;;
40669;SDS011;26355;45.528;9.234;2023-03-14T05:56:14;26.75;;;15.20;;
40669;SDS011;26355;45.528;9.234;2023-03-14T05:58:40;26.45;;;15.63;;
40669;SDS011;26355;45.528;9.234;2023-03-14T06:01:06;28.52;;;15.63;;
40669;SDS011;26355;45.528;9.234;2023-03-14T06:03:32;29.27;;;15.93;;
40669;SDS011;26355;45.528;9.234;2023-03-14T06:05:58;26.20;;;15.90;;
40669;SDS011;26355;45.528;9.234;2023-03-14T06:08:24;25.63;;;15.75;;
40669;SDS011;26355;45.528;9.234;2023-03-14T06:10:50;29.77;;;17.25;;
40669;SDS011;26355;45.528;9.234;2023-03-14T06:13:16;27.35;;;15.52;;
40669;SDS011;26355;45.528;9.234;2023-03-14T06:15:42;27.60;;;15.73;;
40669;SDS011;26355;45.528;9.234;2023-03-14T06:18:07;27.50;;;15.18;;
40669;SDS011;26355;45.528;9.234;2023-03-14T06:20:35;28.40;;;15.93;;
40669;SDS011;26355;45.528;9.234;2023-03-14T06:23:04;26.90;;;15.88;;
40669;SDS011;26355;45.528;9.234;2023-03-14T06:25:30;28.67;;;16.08;;
40669;SDS011;26355;45.528;9.234;2023-03-14T06:27:56;25.50;;;15.10;;
40669;SDS011;26355;45.528;9.234;2023-03-14T06:30:22;25.40;;;15.55;;
40669;SDS011;26355;45.528;9.234;2023-03-14T06:32:47;24.70;;;14.68;;
40669;SDS011;26355;45.528;9.234;2023-03-14T06:35:13;30.95;;;17.33;;
40669;SDS011;26355;45.528;9.234;2023-03-14T06:37:39;27.80;;;15.85;;
40669;SDS011;26355;45.528;9.234;2023-03-14T06:40:04;25.73;;;15.93;;
40669;SDS011;26355;45.528;9.234;2023-03-14T06:44:57;26.77;;;15.63;;
40669;SDS011;26355;45.528;9.234;2023-03-14T06:47:23;26.60;;;15.65;;
40669;SDS011;26355;45.528;9.234;2023-03-14T06:49:49;27.48;;;14.88;;
40669;SDS011;26355;45.528;9.234;2023-03-14T06:52:14;25.83;;;15.98;;
40669;SDS011;26355;45.528;9.234;2023-03-14T06:54:40;27.52;;;15.27;;
40669;SDS011;26355;45.528;9.234;2023-03-14T06:57:05;28.95;;;16.55;;
40669;SDS011;26355;45.528;9.234;2023-03-14T06:59:31;27.80;;;16.85;;
40669;SDS011;26355;45.528;9.234;2023-03-14T07:01:56;27.45;;;16.05;;
40669;SDS011;26355;45.528;9.234;2023-03-14T07:04:22;26.85;;;15.82;;
40669;SDS011;26355;45.528;9.234;2023-03-14T07:07:06;27.92;;;16.73;;
40669;SDS011;26355;45.528;9.234;2023-03-14T07:09:41;28.90;;;15.00;;
40669;SDS011;26355;45.528;9.234;2023-03-14T07:12:07;27.48;;;16.08;;
40669;SDS011;26355;45.528;9.234;2023-03-14T07:14:32;28.20;;;17.70;;
40669;SDS011;26355;45.528;9.234;2023-03-14T07:16:58;30.23;;;18.02;;
40669;SDS011;26355;45.528;9.234;2023-03-14T07:19:23;29.98;;;18.65;;
40669;SDS011;26355;45.528;9.234;2023-03-14T07:21:49;28.02;;;17.98;;
40669;SDS011;26355;45.528;9.234;2023-03-14T07:24:14;31.95;;;19.55;;
40669;SDS011;26355;45.528;9.234;2023-03-14T07:26:40;32.50;;;19.27;;
40669;SDS011;26355;45.528;9.234;2023-03-14T07:29:06;28.00;;;17.33;;
40669;SDS011;26355;45.528;9.234;2023-03-14T07:31:31;28.50;;;18.13;;
40669;SDS011;26355;45.528;9.234;2023-03-14T07:33:57;26.02;;;17.10;;
40669;SDS011;26355;45.528;9.234;2023-03-14T07:36:23;27.98;;;17.88;;
40669;SDS011;26355;45.528;9.234;2023-03-14T07:38:48;30.02;;;18.00;;
40669;SDS011;26355;45.528;9.234;2023-03-14T07:41:14;28.10;;;16.95;;
40669;SDS011;26355;45.528;9.234;2023-03-14T07:43:40;27.33;;;17.65;;
40669;SDS011;26355;45.528;9.234;2023-03-14T07:46:06;32.55;;;19.00;;
40669;SDS011;26355;45.528;9.234;2023-03-14T07:48:32;32.63;;;20.50;;
40669;SDS011;26355;45.528;9.234;2023-03-14T07:50:57;32.53;;;21.42;;
40669;SDS011;26355;45.528;9.234;2023-03-14T07:53:23;34.03;;;21.65;;
40669;SDS011;26355;45.528;9.234;2023-03-14T07:55:53;35.22;;;21.73;;
40669;SDS011;26355;45.528;9.234;2023-03-14T07:58:19;29.65;;;20.40;;
40669;SDS011;26355;45.528;9.234;2023-03-14T08:00:46;34.05;;;20.13;;
40669;SDS011;26355;45.528;9.234;2023-03-14T08:03:12;30.73;;;19.10;;
40669;SDS011;26355;45.528;9.234;2023-03-14T08:05:38;30.98;;;19.75;;
40669;SDS011;26355;45.528;9.234;2023-03-14T08:08:04;29.25;;;19.17;;
40669;SDS011;26355;45.528;9.234;2023-03-14T08:10:30;28.40;;;18.25;;
40669;SDS011;26355;45.528;9.234;2023-03-14T08:12:57;29.48;;;19.23;;
40669;SDS011;26355;45.528;9.234;2023-03-14T08:15:23;29.55;;;19.23;;
40669;SDS011;26355;45.528;9.234;2023-03-14T08:17:50;29.65;;;18.80;;
40669;SDS011;26355;45.528;9.234;2023-03-14T08:22:43;27.00;;;16.83;;
40669;SDS011;26355;45.528;9.234;2023-03-14T08:25:09;27.73;;;17.83;;
40669;SDS011;26355;45.528;9.234;2023-03-14T08:27:35;29.55;;;17.92;;
40669;SDS011;26355;45.528;9.234;2023-03-14T08:30:03;30.13;;;19.52;;
40669;SDS011;26355;45.528;9.234;2023-03-14T08:32:33;30.90;;;20.05;;
40669;SDS011;26355;45.528;9.234;2023-03-14T08:34:59;32.50;;;20.02;;
40669;SDS011;26355;45.528;9.234;2023-03-14T08:37:25;31.60;;;20.17;;
40669;SDS011;26355;45.528;9.234;2023-03-14T08:39:51;30.15;;;19.92;;
40669;SDS011;26355;45.528;9.234;2023-03-14T08:42:17;31.30;;;20.20;;
40669;SDS011;26355;45.528;9.234;2023-03-14T08:45:01;30.67;;;19.85;;
40669;SDS011;26355;45.528;9.234;2023-03-14T08:47:27;31.95;;;21.25;;
40669;SDS011;26355;45.528;9.234;2023-03-14T08:49:53;31.23;;;20.08;;
40669;SDS011;26355;45.528;9.234;2023-03-14T08:52:18;32.22;;;21.75;;
40669;SDS011;26355;45.528;9.234;2023-03-14T08:54:44;32.63;;;21.08;;
40669;SDS011;26355;45.528;9.234;2023-03-14T08:57:10;34.72;;;21.45;;
40669;SDS011;26355;45.528;9.234;2023-03-14T08:59:36;33.38;;;20.52;;
40669;SDS011;26355;45.528;9.234;2023-03-14T09:02:02;34.53;;;21.42;;
40669;SDS011;26355;45.528;9.234;2023-03-14T09:04:31;34.65;;;22.02;;
40669;SDS011;26355;45.528;9.234;2023-03-14T09:06:57;35.13;;;23.40;;
40669;SDS011;26355;45.528;9.234;2023-03-14T09:09:24;35.72;;;22.67;;
40669;SDS011;26355;45.528;9.234;2023-03-14T09:11:52;35.70;;;22.25;;
40669;SDS011;26355;45.528;9.234;2023-03-14T09:14:17;36.05;;;22.23;;
40669;SDS011;26355;45.528;9.234;2023-03-14T09:16:43;38.28;;;23.67;;
40669;SDS011;26355;45.528;9.234;2023-03-14T09:19:09;36.90;;;22.80;;
40669;SDS011;26355;45.528;9.234;2023-03-14T09:21:34;33.28;;;20.77;;
40669;SDS011;26355;45.528;9.234;2023-03-14T09:24:00;37.30;;;21.73;;
40669;SDS011;26355;45.528;9.234;2023-03-14T09:26:26;33.22;;;20.15;;
40669;SDS011;26355;45.528;9.234;2023-03-14T09:28:51;31.13;;;16.95;;
40669;SDS011;26355;45.528;9.234;2023-03-14T09:31:17;33.05;;;17.85;;
40669;SDS011;26355;45.528;9.234;2023-03-14T09:33:42;30.25;;;16.77;;
40669;SDS011;26355;45.528;9.234;2023-03-14T09:36:09;27.77;;;16.40;;
40669;SDS011;26355;45.528;9.234;2023-03-14T09:38:35;28.15;;;15.25;;
40669;SDS011;26355;45.528;9.234;2023-03-14T09:41:01;28.40;;;15.23;;
40669;SDS011;26355;45.528;9.234;2023-03-14T09:43:35;29.30;;;15.55;;
40669;SDS011;26355;45.528;9.234;2023-03-14T09:46:01;26.90;;;14.88;;
40669;SDS011;26355;45.528;9.234;2023-03-14T09:48:29;28.27;;;15.52;;
40669;SDS011;26355;45.528;9.234;2023-03-14T09:50:57;25.08;;;14.38;;
40669;SDS011;26355;45.528;9.234;2023-03-14T09:53:28;25.83;;;13.70;;
40669;SDS011;26355;45.528;9.234;2023-03-14T09:56:04;23.07;;;13.47;;
40669;SDS011;26355;45.528;9.234;2023-03-14T09:58:38;24.30;;;13.07;;
40669;SDS011;26355;45.528;9.234;2023-03-14T10:01:27;22.15;;;12.25;;
40669;SDS011;26355;45.528;9.234;2023-03-14T10:03:58;22.38;;;11.57;;
40669;SDS011;26355;45.528;9.234;2023-03-14T10:06:28;21.98;;;12.60;;
40669;SDS011;26355;45.528;9.234;2023-03-14T10:12:10;22.92;;;13.05;;
40669;SDS011;26355;45.528;9.234;2023-03-14T10:14:37;24.02;;;11.85;;
40669;SDS011;26355;45.528;9.234;2023-03-14T10:17:11;22.15;;;11.82;;
40669;SDS011;26355;45.528;9.234;2023-03-14T10:19:56;21.63;;;10.65;;
40669;SDS011;26355;45.528;9.234;2023-03-14T10:22:29;22.45;;;10.20;;
40669;SDS011;26355;45.528;9.234;2023-03-14T10:24:57;19.08;;;10.40;;
40669;SDS011;26355;45.528;9.234;2023-03-14T10:27:35;19.48;;;10.88;;
40669;SDS011;26355;45.528;9.234;2023-03-14T10:30:02;19.55;;;10.15;;
40669;SDS011;26355;45.528;9.234;2023-03-14T10:32:35;21.63;;;10.07;;
40669;SDS011;26355;45.528;9.234;2023-03-14T10:38:02;19.50;;;10.00;;
40669;SDS011;26355;45.528;9.234;2023-03-14T10:40:37;19.95;;;10.00;;
40669;SDS011;26355;45.528;9.234;2023-03-14T10:43:06;20.73;;;9.77;;
40669;SDS011;26355;45.528;9.234;2023-03-14T10:45:38;19.80;;;9.48;;
40669;SDS011;26355;45.528;9.234;2023-03-14T10:48:15;19.30;;;9.98;;
40669;SDS011;26355;45.528;9.234;2023-03-14T10:50:48;19.13;;;10.68;;
40669;SDS011;26355;45.528;9.234;2023-03-14T10:53:22;21.08;;;10.75;;
40669;SDS011;26355;45.528;9.234;2023-03-14T10:55:51;24.23;;;13.88;;
40669;SDS011;26355;45.528;9.234;2023-03-14T10:58:22;22.95;;;14.25;;
40669;SDS011;26355;45.528;9.234;2023-03-14T11:00:53;23.10;;;14.32;;
40669;SDS011;26355;45.528;9.234;2023-03-14T11:03:27;23.83;;;14.40;;
40669;SDS011;26355;45.528;9.234;2023-03-14T11:05:57;23.55;;;14.77;;
40669;SDS011;26355;45.528;9.234;2023-03-14T11:09:14;23.83;;;14.35;;
40669;SDS011;26355;45.528;9.234;2023-03-14T11:11:31;24.55;;;14.73;;
40669;SDS011;26355;45.528;9.234;2023-03-14T11:14:05;23.67;;;14.05;;
40669;SDS011;26355;45.528;9.234;2023-03-14T11:22:21;23.70;;;15.18;;
40669;SDS011;26355;45.528;9.234;2023-03-14T11:25:11;24.10;;;14.43;;
40669;SDS011;26355;45.528;9.234;2023-03-14T11:27:44;21.63;;;13.25;;
40669;SDS011;26355;45.528;9.234;2023-03-14T11:30:23;24.13;;;14.30;;
40669;SDS011;26355;45.528;9.234;2023-03-14T11:33:15;22.13;;;13.02;;
40669;SDS011;26355;45.528;9.234;2023-03-14T11:38:40;25.15;;;14.60;;
40669;SDS011;26355;45.528;9.234;2023-03-14T11:43:40;24.90;;;14.25;;
40669;SDS011;26355;45.528;9.234;2023-03-14T11:46:14;26.45;;;16.73;;
40669;SDS011;26355;45.528;9.234;2023-03-14T11:48:44;26.58;;;17.25;;
40669;SDS011;26355;45.528;9.234;2023-03-14T11:51:29;24.20;;;15.70;;
40669;SDS011;26355;45.528;9.234;2023-03-14T11:54:17;24.42;;;16.02;;
40669;SDS011;26355;45.528;9.234;2023-03-14T11:56:58;26.17;;;16.63;;
40669;SDS011;26355;45.528;9.234;2023-03-14T11:59:27;25.00;;;16.13;;
40669;SDS011;26355;45.528;9.234;2023-03-14T12:07:42;24.35;;;14.57;;
40669;SDS011;26355;45.528;9.234;2023-03-14T12:10:16;26.42;;;16.15;;
40669;SDS011;26355;45.528;9.234;2023-03-14T12:12:41;24.48;;;14.00;;
40669;SDS011;26355;45.528;9.234;2023-03-14T12:15:15;21.58;;;11.80;;
40669;SDS011;26355;45.528;9.234;2023-03-14T12:17:44;20.95;;;10.40;;
40669;SDS011;26355;45.528;9.234;2023-03-14T12:23:13;22.38;;;11.05;;
40669;SDS011;26355;45.528;9.234;2023-03-14T12:25:35;21.65;;;11.50;;
40669;SDS011;26355;45.528;9.234;2023-03-14T12:30:46;19.45;;;9.55;;
40669;SDS011;26355;45.528;9.234;2023-03-14T12:33:19;20.10;;;9.77;;
40669;SDS011;26355;45.528;9.234;2023-03-14T12:35:52;19.27;;;10.07;;
40669;SDS011;26355;45.528;9.234;2023-03-14T12:41:08;19.23;;;10.55;;
40669;SDS011;26355;45.528;9.234;2023-03-14T12:43:56;19.02;;;9.00;;
40669;SDS011;26355;45.528;9.234;2023-03-14T12:49:47;19.05;;;9.93;;
40669;SDS011;26355;45.528;9.234;2023-03-14T12:52:16;19.67;;;10.45;;
40669;SDS011;26355;45.528;9.234;2023-03-14T12:54:50;18.92;;;10.10;;
40669;SDS011;26355;45.528;9.234;2023-03-14T13:00:21;20.38;;;10.70;;
40669;SDS011;26355;45.528;9.234;2023-03-14T13:03:15;20.15;;;9.80;;
40669;SDS011;26355;45.528;9.234;2023-03-14T13:05:59;20.93;;;10.47;;
40669;SDS011;26355;45.528;9.234;2023-03-14T13:08:34;21.85;;;10.45;;
40669;SDS011;26355;45.528;9.234;2023-03-14T13:11:16;20.17;;;9.48;;
40669;SDS011;26355;45.528;9.234;2023-03-14T13:13:48;19.27;;;9.35;;
40669;SDS011;26355;45.528;9.234;2023-03-14T13:16:19;20.40;;;11.18;;
40669;SDS011;26355;45.528;9.234;2023-03-14T13:18:46;20.10;;;10.70;;
40669;SDS011;26355;45.528;9.234;2023-03-14T13:21:22;20.30;;;10.93;;
40669;SDS011;26355;45.528;9.234;2023-03-14T13:24:00;20.27;;;10.20;;
40669;SDS011;26355;45.528;9.234;2023-03-14T13:26:36;21.85;;;11.43;;
40669;SDS011;26355;45.528;9.234;2023-03-14T13:29:17;21.05;;;11.23;;
40669;SDS011;26355;45.528;9.234;2023-03-14T13:31:49;21.00;;;11.50;;
40669;SDS011;26355;45.528;9.234;2023-03-14T13:34:17;22.48;;;12.98;;
40669;SDS011;26355;45.528;9.234;2023-03-14T13:36:51;21.85;;;11.93;;
40669;SDS011;26355;45.528;9.234;2023-03-14T13:39:30;22.15;;;12.98;;
40669;SDS011;26355;45.528;9.234;2023-03-14T13:41:58;21.88;;;12.95;;
40669;SDS011;26355;45.528;9.234;2023-03-14T13:44:31;23.60;;;13.60;;
40669;SDS011;26355;45.528;9.234;2023-03-14T13:47:02;27.45;;;16.83;;
40669;SDS011;26355;45.528;9.234;2023-03-14T13:49:30;24.27;;;14.45;;
40669;SDS011;26355;45.528;9.234;2023-03-14T13:52:00;22.85;;;14.07;;
40669;SDS011;26355;45.528;9.234;2023-03-14T13:54:26;25.88;;;14.75;;
40669;SDS011;26355;45.528;9.234;2023-03-14T13:56:59;23.30;;;13.77;;
40669;SDS011;26355;45.528;9.234;2023-03-14T13:59:33;22.73;;;12.07;;
40669;SDS011;26355;45.528;9.234;2023-03-14T14:02:00;20.25;;;11.18;;
40669;SDS011;26355;45.528;9.234;2023-03-14T14:04:30;22.15;;;11.50;;
40669;SDS011;26355;45.528;9.234;2023-03-14T14:07:00;22.05;;;11.20;;
40669;SDS011;26355;45.528;9.234;2023-03-14T14:09:30;22.77;;;11.63;;
40669;SDS011;26355;45.528;9.234;2023-03-14T14:12:03;20.17;;;10.90;;
40669;SDS011;26355;45.528;9.234;2023-03-14T14:14:39;19.05;;;10.25;;
40669;SDS011;26355;45.528;9.234;2023-03-14T14:17:26;20.90;;;10.88;;
40669;SDS011;26355;45.528;9.234;2023-03-14T14:20:03;19.90;;;10.45;;
40669;SDS011;26355;45.528;9.234;2023-03-14T14:22:32;19.73;;;10.27;;
40669;SDS011;26355;45.528;9.234;2023-03-14T14:27:55;20.95;;;11.32;;
40669;SDS011;26355;45.528;9.234;2023-03-14T14:32:49;23.02;;;12.98;;
40669;SDS011;26355;45.528;9.234;2023-03-14T14:35:30;24.10;;;14.77;;
40669;SDS011;26355;45.528;9.234;2023-03-14T14:37:58;27.95;;;16.08;;
40669;SDS011;26355;45.528;9.234;2023-03-14T14:40:25;27.03;;;15.70;;
40669;SDS011;26355;45.528;9.234;2023-03-14T14:42:52;23.80;;;15.15;;
40669;SDS011;26355;45.528;9.234;2023-03-14T14:50:25;24.17;;;15.45;;
40669;SDS011;26355;45.528;9.234;2023-03-14T14:52:55;25.70;;;16.70;;
40669;SDS011;26355;45.528;9.234;2023-03-14T14:55:32;26.83;;;17.60;;
40669;SDS011;26355;45.528;9.234;2023-03-14T14:58:12;26.42;;;16.83;;
40669;SDS011;26355;45.528;9.234;2023-03-14T15:00:57;27.25;;;15.55;;
40669;SDS011;26355;45.528;9.234;2023-03-14T15:05:54;25.67;;;15.23;;
40669;SDS011;26355;45.528;9.234;2023-03-14T15:08:23;23.90;;;14.60;;
40669;SDS011;26355;45.528;9.234;2023-03-14T15:10:50;26.30;;;15.05;;
40669;SDS011;26355;45.528;9.234;2023-03-14T15:13:16;22.30;;;13.80;;
40669;SDS011;26355;45.528;9.234;2023-03-14T15:15:41;21.98;;;12.45;;
40669;SDS011;26355;45.528;9.234;2023-03-14T15:18:15;22.03;;;12.30;;
40669;SDS011;26355;45.528;9.234;2023-03-14T15:20:42;22.35;;;12.10;;
40669;SDS011;26355;45.528;9.234;2023-03-14T15:23:12;22.87;;;13.37;;
40669;SDS011;26355;45.528;9.234;2023-03-14T15:25:40;22.02;;;12.35;;
40669;SDS011;26355;45.528;9.234;2023-03-14T15:28:43;22.48;;;12.77;;
40669;SDS011;26355;45.528;9.234;2023-03-14T15:31:32;23.75;;;14.90;;
40669;SDS011;26355;45.528;9.234;2023-03-14T15:33:59;25.13;;;14.90;;
40669;SDS011;26355;45.528;9.234;2023-03-14T15:36:25;25.60;;;15.25;;
40669;SDS011;26355;45.528;9.234;2023-03-14T15:38:53;25.05;;;15.05;;
40669;SDS011;26355;45.528;9.234;2023-03-14T15:41:20;23.67;;;14.23;;
40669;SDS011;26355;45.528;9.234;2023-03-14T15:43:48;25.45;;;14.98;;